Grassy, Missouri
Current Conditions -  °F | °C
As of 10:53 PM on Thursday 30 Oct 2014 (Local Time) from KCGI Reporting Station
Overcast Overcast  
Wind Chill: 52°   Ceiling: 6500
Heat Index: 52°   Visibility: 10mi
Dew Point: 50°   Wind: 3mph
Humidity: 93%   Direction: 130°SE
Pressure: 30.03"   Gusts: NA
Location:  37.26°N, 90.12°W
Report Text: KCGI 310353Z AUTO 13003KT 10SM BKN065 OVC080 11/10 A3003 RMK AO2 RAE0258 SLP167 P0000 T01110100 TSNO
Loading
Personal Weather Stations






























Interactive Weather Map
Tropical Storm Tracking
New forecast layout! Learn more

10-Day Weather Forecast

Advertisements
Track Severe Weather on mobile